createdAt,value
2017-09-27T00:00:17.919Z,15.70
2017-09-27T00:02:45.904Z,17.25
2017-09-27T00:05:13.563Z,14.52
2017-09-27T00:07:43.314Z,15.27
2017-09-27T00:10:10.491Z,14.63
2017-09-27T00:12:38.567Z,14.60
2017-09-27T00:15:08.028Z,14.25
2017-09-27T00:17:36.750Z,12.25
2017-09-27T00:20:05.237Z,13.57
2017-09-27T00:22:32.829Z,12.13
2017-09-27T00:24:59.955Z,13.20
2017-09-27T00:27:29.133Z,12.18
2017-09-27T00:29:58.558Z,11.30
2017-09-27T00:32:28.879Z,11.23
2017-09-27T00:34:57.365Z,13.30
2017-09-27T00:37:27.188Z,12.68
2017-09-27T00:39:55.872Z,11.57
2017-09-27T00:42:24.069Z,11.38
2017-09-27T00:44:51.962Z,11.50
2017-09-27T00:47:19.366Z,13.07
2017-09-27T00:49:49.962Z,11.77
2017-09-27T00:52:19.504Z,10.77
2017-09-27T00:54:46.876Z,11.80
2017-09-27T00:57:13.622Z,11.73
2017-09-27T00:59:43.014Z,10.05
2017-09-27T01:02:15.806Z,10.75
2017-09-27T01:04:42.780Z,11.07
2017-09-27T01:07:10.112Z,12.70
2017-09-27T01:09:37.184Z,13.48
2017-09-27T01:12:05.409Z,11.80
2017-09-27T01:14:33.482Z,11.57
2017-09-27T01:16:59.861Z,10.68
2017-09-27T01:19:27.852Z,11.75
2017-09-27T01:21:56.522Z,10.95
2017-09-27T01:24:25.570Z,9.82
2017-09-27T01:26:55.209Z,11.68
2017-09-27T01:29:22.049Z,10.25
2017-09-27T01:31:50.953Z,11.48
2017-09-27T01:34:19.085Z,12.02
2017-09-27T01:36:46.353Z,12.00
2017-09-27T01:39:16.591Z,13.32
2017-09-27T01:41:46.668Z,15.65
2017-09-27T01:44:17.390Z,14.93
2017-09-27T01:46:44.292Z,16.05
2017-09-27T01:49:10.852Z,15.02
2017-09-27T01:51:37.708Z,12.93
2017-09-27T01:54:05.833Z,13.25
2017-09-27T01:56:36.276Z,14.98
2017-09-27T01:59:03.676Z,13.80
2017-09-27T02:01:31.492Z,14.73
2017-09-27T02:04:04.016Z,13.62
2017-09-27T02:06:31.854Z,13.30
2017-09-27T02:09:00.305Z,12.75
2017-09-27T02:11:28.889Z,14.63
2017-09-27T02:13:58.102Z,12.63
2017-09-27T02:16:28.609Z,13.60
2017-09-27T02:18:56.166Z,14.02
2017-09-27T02:21:25.731Z,14.38
2017-09-27T02:23:53.486Z,15.48
2017-09-27T02:26:20.367Z,13.98
2017-09-27T02:28:48.939Z,13.38
2017-09-27T02:31:16.468Z,14.13
2017-09-27T02:33:44.291Z,13.82
2017-09-27T02:36:13.368Z,11.85
2017-09-27T02:38:44.150Z,14.25
2017-09-27T02:41:12.440Z,12.32
2017-09-27T02:43:40.530Z,12.45
2017-09-27T02:46:08.844Z,13.73
2017-09-27T02:48:38.043Z,12.70
2017-09-27T02:51:05.650Z,11.90
2017-09-27T02:53:32.972Z,11.85
2017-09-27T02:56:00.238Z,12.88
2017-09-27T02:58:28.096Z,12.60
2017-09-27T03:00:57.325Z,12.88
2017-09-27T03:03:27.098Z,12.85
2017-09-27T03:05:55.165Z,13.38
2017-09-27T03:08:23.779Z,11.90
2017-09-27T03:10:53.540Z,13.35
2017-09-27T03:13:21.898Z,14.23
2017-09-27T03:15:50.204Z,13.15
2017-09-27T03:18:21.629Z,12.57
2017-09-27T03:20:49.144Z,13.02
2017-09-27T03:23:17.641Z,13.35
2017-09-27T03:25:46.652Z,13.45
2017-09-27T03:28:16.446Z,12.40
2017-09-27T03:30:44.292Z,15.45
2017-09-27T03:33:11.908Z,13.90
2017-09-27T03:35:39.751Z,16.42
2017-09-27T03:38:07.805Z,17.30
2017-09-27T03:40:35.549Z,19.17
2017-09-27T03:43:03.137Z,19.50
2017-09-27T03:45:30.381Z,20.77
2017-09-27T03:47:59.397Z,18.83
2017-09-27T03:50:27.811Z,19.95
2017-09-27T03:52:54.996Z,16.70
2017-09-27T03:55:24.831Z,16.35
2017-09-27T03:57:53.772Z,15.07
2017-09-27T04:00:21.439Z,14.57
2017-09-27T04:02:49.357Z,14.68
2017-09-27T04:05:17.418Z,15.05
2017-09-27T04:07:47.505Z,14.70
2017-09-27T04:10:15.695Z,15.43
2017-09-27T04:12:43.197Z,18.45
2017-09-27T04:15:11.331Z,18.12
2017-09-27T04:17:39.132Z,21.08
2017-09-27T04:20:08.716Z,21.12
2017-09-27T04:22:37.489Z,17.95
2017-09-27T04:25:05.846Z,21.10
2017-09-27T04:27:33.083Z,21.62
2017-09-27T04:30:00.842Z,21.58
2017-09-27T04:32:29.645Z,22.15
2017-09-27T04:35:03.007Z,19.48
2017-09-27T04:37:32.281Z,21.62
2017-09-27T04:40:02.096Z,22.52
2017-09-27T04:42:31.301Z,21.60
2017-09-27T04:44:58.946Z,22.60
2017-09-27T04:47:26.952Z,21.45
2017-09-27T04:49:55.916Z,19.15
2017-09-27T04:52:25.184Z,21.75
2017-09-27T04:54:53.312Z,20.20
2017-09-27T04:57:22.222Z,21.20
2017-09-27T04:59:48.528Z,19.17
2017-09-27T05:02:21.243Z,23.48
2017-09-27T05:04:47.540Z,19.87
2017-09-27T05:07:15.473Z,19.80
2017-09-27T05:09:44.573Z,18.45
2017-09-27T05:12:12.044Z,16.60
2017-09-27T05:14:39.357Z,20.05
2017-09-27T05:17:07.542Z,19.12
2017-09-27T05:19:33.867Z,19.20
2017-09-27T05:22:01.171Z,18.83
2017-09-27T05:24:36.918Z,21.52
2017-09-27T05:27:03.302Z,21.23
2017-09-27T05:29:35.539Z,18.70
2017-09-27T05:32:04.515Z,19.60
2017-09-27T05:34:33.490Z,20.52
2017-09-27T05:37:00.129Z,17.42
2017-09-27T05:39:28.244Z,18.98
2017-09-27T05:41:58.958Z,18.77
2017-09-27T05:44:27.265Z,18.25
2017-09-27T05:46:57.054Z,18.27
2017-09-27T05:49:24.983Z,18.25
2017-09-27T05:51:52.053Z,17.92
2017-09-27T05:54:22.903Z,17.33
2017-09-27T05:56:51.293Z,16.87
2017-09-27T05:59:19.447Z,18.95
2017-09-27T06:01:47.690Z,20.50
2017-09-27T06:27:26.066Z,19.77
2017-09-27T06:29:55.566Z,19.95
2017-09-27T06:32:24.775Z,20.20
2017-09-27T07:03:25.121Z,21.58
2017-09-27T07:05:54.049Z,21.15
2017-09-27T07:08:24.274Z,22.13
2017-09-27T07:16:01.115Z,23.17
2017-09-27T07:18:31.239Z,22.60
2017-09-27T07:21:02.912Z,23.23
2017-09-27T07:23:37.666Z,23.10
2017-09-27T07:26:07.087Z,23.87
2017-09-27T07:31:08.737Z,28.87
2017-09-27T07:33:37.463Z,31.80
2017-09-27T07:36:06.695Z,31.25
2017-09-27T07:43:40.849Z,31.67
2017-09-27T07:46:14.210Z,39.85
2017-09-27T07:48:47.233Z,44.58
2017-09-27T07:51:23.509Z,43.72
2017-09-27T07:53:51.664Z,39.80
2017-09-27T07:56:27.515Z,37.53
2017-09-27T07:58:57.453Z,39.10
2017-09-27T08:01:30.871Z,36.85
2017-09-27T08:03:58.519Z,37.10
2017-09-27T08:09:02.282Z,43.83
2017-09-27T08:14:03.866Z,43.83
2017-09-27T08:16:34.722Z,44.00
2017-09-27T08:24:16.157Z,52.42
2017-09-27T08:26:48.770Z,55.05
2017-09-27T08:29:16.963Z,47.00
2017-09-27T08:36:54.153Z,37.85
2017-09-27T08:39:23.970Z,35.88
2017-09-27T08:41:53.267Z,37.38
2017-09-27T08:44:24.417Z,38.30
2017-09-27T08:52:09.618Z,37.57
2017-09-27T08:54:42.786Z,38.67
2017-09-27T08:59:46.512Z,39.57
2017-09-27T09:02:21.258Z,39.40
2017-09-27T09:04:51.372Z,38.87
2017-09-27T09:07:21.387Z,41.17
2017-09-27T09:09:52.816Z,40.67
2017-09-27T09:15:02.770Z,37.20
2017-09-27T09:20:06.253Z,36.13
2017-09-27T09:22:42.144Z,37.63
2017-09-27T09:27:49.499Z,37.00
2017-09-27T09:30:23.252Z,37.97
2017-09-27T09:35:26.872Z,36.87
2017-09-27T09:37:56.748Z,36.07
2017-09-27T09:40:24.733Z,35.67
2017-09-27T09:48:01.358Z,39.70
2017-09-27T09:50:32.441Z,36.60
2017-09-27T09:55:37.342Z,34.30
2017-09-27T09:58:07.913Z,30.50
2017-09-27T10:00:37.197Z,32.20
2017-09-27T10:05:46.011Z,32.67
2017-09-27T10:16:00.941Z,26.93
2017-09-27T12:27:09.532Z,15.07
2017-09-27T12:29:36.180Z,13.30
2017-09-27T12:32:02.796Z,14.97
2017-09-27T12:34:29.086Z,13.97
2017-09-27T12:36:55.346Z,14.50
2017-09-27T12:39:21.783Z,14.20
2017-09-27T12:41:48.048Z,14.37
2017-09-27T12:44:14.330Z,15.03
2017-09-27T12:46:40.610Z,14.90
2017-09-27T12:49:06.884Z,12.27
2017-09-27T12:51:33.170Z,13.30
2017-09-27T12:53:59.449Z,13.10
2017-09-27T12:56:25.729Z,13.50
2017-09-27T12:58:52.043Z,12.27
2017-09-27T13:01:18.349Z,12.50
2017-09-27T13:03:44.616Z,11.93
2017-09-27T13:06:10.912Z,11.60
2017-09-27T13:08:37.236Z,11.93
2017-09-27T13:11:03.504Z,11.90
2017-09-27T13:13:29.786Z,12.67
2017-09-27T13:15:56.066Z,12.63
2017-09-27T13:18:22.367Z,13.43
2017-09-27T13:20:49.012Z,12.10
2017-09-27T13:23:15.673Z,11.87
2017-09-27T13:25:41.940Z,12.13
2017-09-27T13:28:08.248Z,12.20
2017-09-27T13:30:34.523Z,12.40
2017-09-27T13:33:01.194Z,11.00
2017-09-27T13:35:28.443Z,11.50
2017-09-27T13:37:54.716Z,13.47
2017-09-27T13:40:20.999Z,14.60
2017-09-27T13:42:47.297Z,12.67
2017-09-27T13:45:13.557Z,12.43
2017-09-27T13:47:39.841Z,12.30
2017-09-27T13:50:06.136Z,11.97
2017-09-27T13:52:32.424Z,11.67
2017-09-27T13:54:59.116Z,11.03
2017-09-27T13:57:25.388Z,10.80
2017-09-27T13:59:51.664Z,10.17
2017-09-27T14:02:17.933Z,10.57
2017-09-27T14:04:44.228Z,9.83
2017-09-27T14:07:10.501Z,11.37
2017-09-27T14:09:36.825Z,12.00
2017-09-27T14:12:03.091Z,11.83
2017-09-27T14:14:29.380Z,10.70
2017-09-27T14:16:55.641Z,10.50
2017-09-27T14:19:21.909Z,10.30
2017-09-27T14:21:48.186Z,11.57
2017-09-27T14:24:14.826Z,9.30
2017-09-27T14:26:41.472Z,8.83
2017-09-27T14:29:07.791Z,8.90
2017-09-27T14:31:34.071Z,9.40
2017-09-27T14:34:00.324Z,10.70
2017-09-27T14:36:26.583Z,8.20
2017-09-27T14:38:53.261Z,9.27
2017-09-27T14:41:19.508Z,8.97
2017-09-27T14:43:45.832Z,8.50
2017-09-27T14:46:12.097Z,8.67
2017-09-27T14:48:38.360Z,8.97
2017-09-27T14:51:04.642Z,8.23
2017-09-27T14:53:31.187Z,8.37
2017-09-27T14:55:57.436Z,8.73
2017-09-27T14:58:24.075Z,8.10
2017-09-27T15:00:50.732Z,8.10
2017-09-27T15:03:16.996Z,7.77
2017-09-27T15:05:43.313Z,8.73
2017-09-27T15:08:10.089Z,8.30
2017-09-27T15:10:36.391Z,6.50
2017-09-27T15:13:02.711Z,6.63
2017-09-27T15:15:28.992Z,7.13
2017-09-27T15:17:55.294Z,7.07
2017-09-27T15:20:21.607Z,8.10
2017-09-27T15:22:47.884Z,8.40
2017-09-27T15:25:14.177Z,7.40
2017-09-27T15:27:40.506Z,7.53
2017-09-27T15:30:06.822Z,8.97
2017-09-27T15:32:33.176Z,8.50
2017-09-27T15:34:59.452Z,7.50
2017-09-27T15:37:25.758Z,6.80
2017-09-27T15:39:52.384Z,8.97
2017-09-27T15:42:18.670Z,10.00
2017-09-27T15:44:44.968Z,8.70
2017-09-27T15:47:11.534Z,7.80
2017-09-27T15:49:37.812Z,9.83
2017-09-27T15:52:04.493Z,6.90
2017-09-27T15:54:30.792Z,7.50
2017-09-27T15:56:57.446Z,7.83
2017-09-27T15:59:23.731Z,7.50
2017-09-27T16:01:49.990Z,6.60
2017-09-27T16:04:16.655Z,6.40
2017-09-27T16:06:42.935Z,7.60
2017-09-27T16:09:09.244Z,8.10
2017-09-27T16:11:35.539Z,7.87
2017-09-27T16:14:01.852Z,9.07
2017-09-27T16:16:28.518Z,9.80
2017-09-27T16:18:54.831Z,9.80
2017-09-27T16:21:21.129Z,8.50
2017-09-27T16:23:47.412Z,9.00
2017-09-27T16:26:15.452Z,9.00
2017-09-27T16:28:42.104Z,8.53
2017-09-27T16:31:09.237Z,9.30
2017-09-27T16:33:35.527Z,8.00
2017-09-27T16:36:01.796Z,8.70
2017-09-27T16:38:28.487Z,9.73
2017-09-27T16:40:54.784Z,9.90
2017-09-27T16:43:21.083Z,9.10
2017-09-27T16:45:47.777Z,8.87
2017-09-27T16:48:14.093Z,8.27
2017-09-27T16:50:42.043Z,8.20
2017-09-27T16:53:08.365Z,8.80
2017-09-27T16:55:34.656Z,7.70
2017-09-27T16:58:01.076Z,8.33
2017-09-27T17:00:27.436Z,7.83
2017-09-27T17:02:54.136Z,7.80
2017-09-27T17:05:20.963Z,7.70
2017-09-27T17:07:47.253Z,8.30
2017-09-27T17:10:13.916Z,8.30
2017-09-27T17:12:40.187Z,6.73
2017-09-27T17:15:06.498Z,8.17
2017-09-27T17:17:32.800Z,8.43
2017-09-27T17:19:59.082Z,8.40
2017-09-27T17:22:25.412Z,7.53
2017-09-27T17:24:51.728Z,8.53
2017-09-27T17:27:18.023Z,7.50
2017-09-27T17:29:44.303Z,7.83
2017-09-27T17:32:10.586Z,9.30
2017-09-27T17:34:36.843Z,8.83
2017-09-27T17:37:03.143Z,8.30
2017-09-27T17:39:29.437Z,7.93
2017-09-27T17:41:55.748Z,9.70
2017-09-27T17:44:22.021Z,9.13
2017-09-27T17:46:48.328Z,9.83
2017-09-27T17:49:15.808Z,8.80
2017-09-27T17:51:42.116Z,8.83
2017-09-27T17:54:08.981Z,8.53
2017-09-27T17:56:36.129Z,8.30
2017-09-27T17:59:02.912Z,8.40
2017-09-27T18:01:29.220Z,9.10
2017-09-27T18:03:55.559Z,8.53
2017-09-27T18:06:28.061Z,7.60
2017-09-27T18:08:57.247Z,8.80
2017-09-27T18:11:30.303Z,8.27
2017-09-27T18:14:02.808Z,9.20
2017-09-27T18:16:36.056Z,9.47
2017-09-27T18:19:02.796Z,9.10
2017-09-27T18:21:29.143Z,9.70
2017-09-27T18:23:55.477Z,8.77
2017-09-27T18:26:21.782Z,9.13
2017-09-27T18:28:48.456Z,9.03
2017-09-27T18:31:14.786Z,9.17
2017-09-27T18:33:41.086Z,9.33
2017-09-27T18:36:07.472Z,9.00
2017-09-27T18:38:33.780Z,8.67
2017-09-27T18:41:01.039Z,10.07
2017-09-27T18:43:27.416Z,8.23
2017-09-27T18:45:53.770Z,8.73
2017-09-27T18:48:20.107Z,9.23
2017-09-27T18:50:46.762Z,9.10
2017-09-27T18:53:13.135Z,9.20
2017-09-27T18:55:39.822Z,9.73
2017-09-27T18:58:06.204Z,9.00
2017-09-27T19:00:33.116Z,9.18
2017-09-27T19:02:59.445Z,9.52
2017-09-27T19:05:25.810Z,9.30
2017-09-27T19:07:52.144Z,9.03
2017-09-27T19:10:18.803Z,9.43
2017-09-27T19:12:45.413Z,8.68
2017-09-27T19:15:11.792Z,8.32
2017-09-27T19:17:38.746Z,8.65
2017-09-27T19:20:05.163Z,9.32
2017-09-27T19:22:31.499Z,9.20
2017-09-27T19:24:58.229Z,9.10
2017-09-27T19:27:24.776Z,9.52
2017-09-27T19:29:51.341Z,8.60
2017-09-27T19:32:17.768Z,9.82
2017-09-27T19:34:44.124Z,8.30
2017-09-27T19:37:10.452Z,7.70
2017-09-27T19:39:36.938Z,7.80
2017-09-27T19:42:03.388Z,10.35
2017-09-27T19:44:30.039Z,10.63
2017-09-27T19:46:56.704Z,10.00
2017-09-27T19:49:23.376Z,8.93
2017-09-27T19:51:49.713Z,9.80
2017-09-27T19:54:16.653Z,10.13
2017-09-27T19:56:42.959Z,8.45
2017-09-27T19:59:09.270Z,8.57
2017-09-27T20:01:35.569Z,9.43
2017-09-27T20:04:02.754Z,9.77
2017-09-27T20:06:29.098Z,10.43
2017-09-27T20:08:55.814Z,10.65
2017-09-27T20:11:26.331Z,10.15
2017-09-27T20:13:52.678Z,9.98
2017-09-27T20:16:18.960Z,9.95
2017-09-27T20:18:45.248Z,10.15
2017-09-27T20:21:11.560Z,9.60
2017-09-27T20:23:37.828Z,10.68
2017-09-27T20:26:04.991Z,11.23
2017-09-27T20:28:31.328Z,11.38
2017-09-27T20:30:57.632Z,10.32
2017-09-27T20:33:24.337Z,10.77
2017-09-27T20:35:50.612Z,11.43
2017-09-27T20:38:16.930Z,12.05
2017-09-27T20:40:43.582Z,12.20
2017-09-27T20:43:09.891Z,10.77
2017-09-27T20:45:36.929Z,10.70
2017-09-27T20:48:03.512Z,11.57
2017-09-27T20:50:29.843Z,10.80
2017-09-27T20:52:56.125Z,10.20
2017-09-27T20:55:23.791Z,11.18
2017-09-27T20:57:50.069Z,11.65
2017-09-27T21:00:16.364Z,10.77
2017-09-27T21:02:42.652Z,11.05
2017-09-27T21:05:09.216Z,11.55
2017-09-27T21:07:35.497Z,11.68
2017-09-27T21:10:01.790Z,11.68
2017-09-27T21:12:28.468Z,11.82
2017-09-27T21:14:55.388Z,11.75
2017-09-27T21:17:21.717Z,11.82
2017-09-27T21:19:48.022Z,10.35
2017-09-27T21:22:14.323Z,10.45
2017-09-27T21:24:40.632Z,9.68
2017-09-27T21:27:06.950Z,9.45
2017-09-27T21:29:33.234Z,11.57
2017-09-27T21:31:59.520Z,10.27
2017-09-27T21:34:25.819Z,11.07
2017-09-27T21:36:52.120Z,12.20
2017-09-27T21:39:18.432Z,11.55
2017-09-27T21:41:47.671Z,9.75
2017-09-27T21:44:14.291Z,12.00
2017-09-27T21:46:40.998Z,11.23
2017-09-27T21:49:07.288Z,11.12
2017-09-27T21:51:33.598Z,12.82
2017-09-27T21:54:00.270Z,12.13
2017-09-27T21:56:26.547Z,12.85
2017-09-27T21:58:52.820Z,11.02
2017-09-27T22:01:19.149Z,11.55
2017-09-27T22:03:52.221Z,10.63
2017-09-27T22:06:18.507Z,11.57
2017-09-27T22:08:45.027Z,10.57
2017-09-27T22:11:11.308Z,11.57
2017-09-27T22:13:37.582Z,11.30
2017-09-27T22:16:03.875Z,10.45
2017-09-27T22:18:30.523Z,11.12
2017-09-27T22:20:56.812Z,11.10
2017-09-27T22:23:23.108Z,10.32
2017-09-27T22:25:49.425Z,11.60
2017-09-27T22:28:15.668Z,11.12
2017-09-27T22:30:41.959Z,10.63
2017-09-27T22:33:08.282Z,11.12
2017-09-27T22:35:34.937Z,12.25
2017-09-27T22:38:01.215Z,10.25
2017-09-27T22:40:27.495Z,11.70
2017-09-27T22:42:53.776Z,12.18
2017-09-27T22:45:21.012Z,11.45
2017-09-27T22:47:47.547Z,11.73
2017-09-27T22:50:13.815Z,11.23
2017-09-27T22:52:40.107Z,9.73
2017-09-27T22:55:06.374Z,11.07
2017-09-27T22:57:33.019Z,11.93
2017-09-27T22:59:59.657Z,10.70
2017-09-27T23:02:26.323Z,11.15
2017-09-27T23:04:52.606Z,11.15
2017-09-27T23:07:18.870Z,10.80
2017-09-27T23:09:45.149Z,12.00
2017-09-27T23:12:11.432Z,11.52
2017-09-27T23:14:37.711Z,11.57
2017-09-27T23:17:03.981Z,11.00
2017-09-27T23:19:30.665Z,11.38
2017-09-27T23:21:56.982Z,10.88
2017-09-27T23:24:23.258Z,11.60
2017-09-27T23:26:49.561Z,10.75
2017-09-27T23:29:15.811Z,10.52
2017-09-27T23:31:42.116Z,12.30
2017-09-27T23:34:08.377Z,11.85
2017-09-27T23:36:34.689Z,11.73
2017-09-27T23:39:00.951Z,10.82
2017-09-27T23:41:27.615Z,10.85
2017-09-27T23:43:53.859Z,9.90
2017-09-27T23:46:20.115Z,10.20
2017-09-27T23:48:46.390Z,9.13
2017-09-27T23:51:12.675Z,10.20
2017-09-27T23:53:38.968Z,9.65
2017-09-27T23:56:05.250Z,10.95
2017-09-27T23:58:31.546Z,12.90
